sensor_id;sensor_type;location;lat;lon;timestamp;pressure;altitude;pressure_sealevel;temperature;humidity
57290;BME280;43523;53.022;-1.178;2023-09-08T00:00:34;100923.40;;;18.45;74.35
57290;BME280;43523;53.022;-1.178;2023-09-08T00:01:37;100924.64;;;19.07;73.49
57290;BME280;43523;53.022;-1.178;2023-09-08T00:02:39;100926.79;;;18.55;76.23
57290;BME280;43523;53.022;-1.178;2023-09-08T00:03:42;100926.17;;;18.58;74.04
57290;BME280;43523;53.022;-1.178;2023-09-08T00:04:45;100926.18;;;18.62;73.93
57290;BME280;43523;53.022;-1.178;2023-09-08T00:05:47;100927.20;;;18.44;74.74
57290;BME280;43523;53.022;-1.178;2023-09-08T00:06:50;100926.42;;;18.35;76.34
57290;BME280;43523;53.022;-1.178;2023-09-08T00:07:52;100927.50;;;18.20;76.60
57290;BME280;43523;53.022;-1.178;2023-09-08T00:08:54;100927.10;;;18.27;76.99
57290;BME280;43523;53.022;-1.178;2023-09-08T00:09:56;100925.94;;;18.63;73.27
57290;BME280;43523;53.022;-1.178;2023-09-08T00:10:59;100926.80;;;17.79;79.03
57290;BME280;43523;53.022;-1.178;2023-09-08T00:12:01;100926.56;;;18.27;75.47
57290;BME280;43523;53.022;-1.178;2023-09-08T00:13:03;100926.09;;;18.05;77.28
57290;BME280;43523;53.022;-1.178;2023-09-08T00:14:06;100923.67;;;18.04;78.42
57290;BME280;43523;53.022;-1.178;2023-09-08T00:15:09;100922.32;;;18.27;76.60
57290;BME280;43523;53.022;-1.178;2023-09-08T00:16:13;100921.44;;;18.23;76.47
57290;BME280;43523;53.022;-1.178;2023-09-08T00:17:15;100921.74;;;18.14;75.24
57290;BME280;43523;53.022;-1.178;2023-09-08T00:18:17;100922.41;;;18.31;75.62
57290;BME280;43523;53.022;-1.178;2023-09-08T00:19:20;100921.20;;;18.00;77.04
57290;BME280;43523;53.022;-1.178;2023-09-08T00:20:22;100927.68;;;17.38;81.70
57290;BME280;43523;53.022;-1.178;2023-09-08T00:21:25;100928.98;;;17.18;84.31
57290;BME280;43523;53.022;-1.178;2023-09-08T00:22:27;100923.69;;;17.33;85.20
57290;BME280;43523;53.022;-1.178;2023-09-08T00:23:29;100916.46;;;17.90;80.46
57290;BME280;43523;53.022;-1.178;2023-09-08T00:24:32;100916.52;;;18.17;79.07
57290;BME280;43523;53.022;-1.178;2023-09-08T00:25:34;100916.27;;;18.11;76.08
57290;BME280;43523;53.022;-1.178;2023-09-08T00:26:36;100917.53;;;18.14;76.79
57290;BME280;43523;53.022;-1.178;2023-09-08T00:27:39;100922.06;;;17.55;78.56
57290;BME280;43523;53.022;-1.178;2023-09-08T00:28:41;100922.68;;;17.78;78.38
57290;BME280;43523;53.022;-1.178;2023-09-08T00:29:43;100921.19;;;17.81;80.53
57290;BME280;43523;53.022;-1.178;2023-09-08T00:30:45;100919.85;;;18.03;79.82
57290;BME280;43523;53.022;-1.178;2023-09-08T00:31:47;100924.18;;;17.58;82.00
57290;BME280;43523;53.022;-1.178;2023-09-08T00:32:50;100919.67;;;17.76;79.73
57290;BME280;43523;53.022;-1.178;2023-09-08T00:33:52;100923.96;;;17.67;82.60
57290;BME280;43523;53.022;-1.178;2023-09-08T00:34:55;100916.54;;;18.10;80.42
57290;BME280;43523;53.022;-1.178;2023-09-08T00:35:57;100916.58;;;18.20;79.18
57290;BME280;43523;53.022;-1.178;2023-09-08T00:36:59;100917.23;;;17.97;77.23
57290;BME280;43523;53.022;-1.178;2023-09-08T00:38:02;100918.60;;;18.02;77.68
57290;BME280;43523;53.022;-1.178;2023-09-08T00:39:04;100918.70;;;18.30;77.67
57290;BME280;43523;53.022;-1.178;2023-09-08T00:40:07;100916.23;;;17.98;78.52
57290;BME280;43523;53.022;-1.178;2023-09-08T00:41:09;100913.57;;;18.02;77.52
57290;BME280;43523;53.022;-1.178;2023-09-08T00:42:12;100911.15;;;18.27;77.26
57290;BME280;43523;53.022;-1.178;2023-09-08T00:43:15;100908.59;;;18.27;78.24
57290;BME280;43523;53.022;-1.178;2023-09-08T00:44:17;100909.07;;;18.35;76.50
57290;BME280;43523;53.022;-1.178;2023-09-08T00:45:19;100909.61;;;18.30;76.47
57290;BME280;43523;53.022;-1.178;2023-09-08T00:46:22;100907.73;;;18.18;79.77
57290;BME280;43523;53.022;-1.178;2023-09-08T00:47:25;100907.64;;;18.02;79.41
57290;BME280;43523;53.022;-1.178;2023-09-08T00:48:27;100907.46;;;18.22;79.71
57290;BME280;43523;53.022;-1.178;2023-09-08T00:49:30;100908.72;;;18.19;77.72
57290;BME280;43523;53.022;-1.178;2023-09-08T00:50:33;100910.54;;;18.19;78.43
57290;BME280;43523;53.022;-1.178;2023-09-08T00:51:36;100912.51;;;18.37;78.68
57290;BME280;43523;53.022;-1.178;2023-09-08T00:52:38;100913.03;;;17.65;80.77
57290;BME280;43523;53.022;-1.178;2023-09-08T00:53:40;100909.99;;;17.86;79.72
57290;BME280;43523;53.022;-1.178;2023-09-08T00:54:43;100909.51;;;18.12;78.97
57290;BME280;43523;53.022;-1.178;2023-09-08T00:55:46;100907.00;;;18.16;76.48
57290;BME280;43523;53.022;-1.178;2023-09-08T00:56:49;100905.50;;;18.43;76.42
57290;BME280;43523;53.022;-1.178;2023-09-08T00:57:58;100907.48;;;18.58;73.98
57290;BME280;43523;53.022;-1.178;2023-09-08T00:59:01;100910.27;;;18.15;74.89
57290;BME280;43523;53.022;-1.178;2023-09-08T01:00:04;100911.82;;;18.78;74.31
57290;BME280;43523;53.022;-1.178;2023-09-08T01:01:07;100912.03;;;18.71;74.88
57290;BME280;43523;53.022;-1.178;2023-09-08T01:02:09;100911.31;;;18.46;73.84
57290;BME280;43523;53.022;-1.178;2023-09-08T01:03:11;100912.71;;;17.85;77.86
57290;BME280;43523;53.022;-1.178;2023-09-08T01:04:14;100912.33;;;17.69;79.78
57290;BME280;43523;53.022;-1.178;2023-09-08T01:05:16;100913.66;;;18.03;77.01
57290;BME280;43523;53.022;-1.178;2023-09-08T01:06:18;100912.80;;;18.39;76.55
57290;BME280;43523;53.022;-1.178;2023-09-08T01:07:21;100911.71;;;18.59;76.12
57290;BME280;43523;53.022;-1.178;2023-09-08T01:08:24;100910.11;;;18.38;74.75
57290;BME280;43523;53.022;-1.178;2023-09-08T01:09:28;100907.39;;;18.58;75.41
57290;BME280;43523;53.022;-1.178;2023-09-08T01:10:36;100908.35;;;17.88;76.19
57290;BME280;43523;53.022;-1.178;2023-09-08T01:11:39;100906.70;;;17.88;76.56
57290;BME280;43523;53.022;-1.178;2023-09-08T01:12:41;100906.25;;;18.34;77.20
57290;BME280;43523;53.022;-1.178;2023-09-08T01:13:43;100904.67;;;18.28;76.07
57290;BME280;43523;53.022;-1.178;2023-09-08T01:14:45;100904.52;;;18.35;77.53
57290;BME280;43523;53.022;-1.178;2023-09-08T01:15:49;100903.87;;;18.03;79.12
57290;BME280;43523;53.022;-1.178;2023-09-08T01:16:51;100902.16;;;18.19;75.61
57290;BME280;43523;53.022;-1.178;2023-09-08T01:17:53;100902.82;;;18.39;75.43
57290;BME280;43523;53.022;-1.178;2023-09-08T01:18:56;100901.13;;;18.29;76.22
57290;BME280;43523;53.022;-1.178;2023-09-08T01:20:02;100900.27;;;18.29;76.65
57290;BME280;43523;53.022;-1.178;2023-09-08T01:21:22;100903.14;;;18.32;75.90
57290;BME280;43523;53.022;-1.178;2023-09-08T01:23:17;100902.52;;;18.22;75.48
57290;BME280;43523;53.022;-1.178;2023-09-08T01:24:37;100904.08;;;18.00;77.53
57290;BME280;43523;53.022;-1.178;2023-09-08T01:25:45;100901.73;;;17.82;80.66
57290;BME280;43523;53.022;-1.178;2023-09-08T01:26:48;100899.67;;;17.48;79.91
57290;BME280;43523;53.022;-1.178;2023-09-08T01:27:53;100897.71;;;17.78;79.58
57290;BME280;43523;53.022;-1.178;2023-09-08T01:28:57;100897.77;;;17.84;81.22
57290;BME280;43523;53.022;-1.178;2023-09-08T01:30:02;100897.91;;;17.66;80.51
57290;BME280;43523;53.022;-1.178;2023-09-08T01:31:05;100897.46;;;17.73;80.93
57290;BME280;43523;53.022;-1.178;2023-09-08T01:32:08;100894.22;;;17.49;83.12
57290;BME280;43523;53.022;-1.178;2023-09-08T01:33:11;100895.12;;;17.29;82.42
57290;BME280;43523;53.022;-1.178;2023-09-08T01:34:14;100892.62;;;17.31;82.92
57290;BME280;43523;53.022;-1.178;2023-09-08T01:35:16;100890.07;;;17.49;83.48
57290;BME280;43523;53.022;-1.178;2023-09-08T01:36:19;100887.56;;;17.30;83.14
57290;BME280;43523;53.022;-1.178;2023-09-08T01:37:24;100885.54;;;17.02;83.91
57290;BME280;43523;53.022;-1.178;2023-09-08T01:38:26;100884.68;;;17.20;85.25
57290;BME280;43523;53.022;-1.178;2023-09-08T01:39:29;100885.43;;;16.62;88.79
57290;BME280;43523;53.022;-1.178;2023-09-08T01:40:31;100886.60;;;17.16;88.41
57290;BME280;43523;53.022;-1.178;2023-09-08T01:41:34;100883.69;;;16.77;89.48
57290;BME280;43523;53.022;-1.178;2023-09-08T01:42:37;100882.86;;;16.88;88.38
57290;BME280;43523;53.022;-1.178;2023-09-08T01:43:39;100883.65;;;17.41;87.58
57290;BME280;43523;53.022;-1.178;2023-09-08T01:44:41;100881.26;;;16.78;88.78
57290;BME280;43523;53.022;-1.178;2023-09-08T01:45:43;100884.05;;;17.17;90.03
57290;BME280;43523;53.022;-1.178;2023-09-08T01:46:45;100884.52;;;16.71;90.03
57290;BME280;43523;53.022;-1.178;2023-09-08T01:47:48;100886.19;;;17.04;90.67
57290;BME280;43523;53.022;-1.178;2023-09-08T01:48:49;100890.31;;;17.15;90.29
57290;BME280;43523;53.022;-1.178;2023-09-08T01:49:52;100891.07;;;17.27;90.44
57290;BME280;43523;53.022;-1.178;2023-09-08T01:50:54;100896.73;;;17.18;90.08
57290;BME280;43523;53.022;-1.178;2023-09-08T01:51:57;100899.51;;;17.35;88.27
57290;BME280;43523;53.022;-1.178;2023-09-08T01:52:59;100900.78;;;17.23;89.04
57290;BME280;43523;53.022;-1.178;2023-09-08T01:54:01;100902.22;;;16.66;92.79
57290;BME280;43523;53.022;-1.178;2023-09-08T01:55:04;100901.99;;;17.06;91.76
57290;BME280;43523;53.022;-1.178;2023-09-08T01:56:07;100901.49;;;17.37;88.70
57290;BME280;43523;53.022;-1.178;2023-09-08T01:57:09;100903.37;;;17.38;87.00
57290;BME280;43523;53.022;-1.178;2023-09-08T01:58:12;100900.22;;;17.53;86.21
57290;BME280;43523;53.022;-1.178;2023-09-08T01:59:14;100900.55;;;17.41;84.75
57290;BME280;43523;53.022;-1.178;2023-09-08T02:00:17;100895.72;;;17.55;83.41
57290;BME280;43523;53.022;-1.178;2023-09-08T02:01:20;100892.04;;;17.57;83.76
57290;BME280;43523;53.022;-1.178;2023-09-08T02:02:22;100889.23;;;17.56;83.37
57290;BME280;43523;53.022;-1.178;2023-09-08T02:03:25;100890.19;;;17.53;85.19
57290;BME280;43523;53.022;-1.178;2023-09-08T02:04:28;100887.14;;;17.80;84.38
57290;BME280;43523;53.022;-1.178;2023-09-08T02:05:29;100886.71;;;17.80;84.27
57290;BME280;43523;53.022;-1.178;2023-09-08T02:06:32;100888.83;;;17.50;85.32
57290;BME280;43523;53.022;-1.178;2023-09-08T02:07:34;100890.15;;;16.85;89.61
57290;BME280;43523;53.022;-1.178;2023-09-08T02:08:36;100890.30;;;17.12;89.72
57290;BME280;43523;53.022;-1.178;2023-09-08T02:09:38;100889.83;;;17.46;87.03
57290;BME280;43523;53.022;-1.178;2023-09-08T02:10:41;100890.49;;;17.40;87.87
57290;BME280;43523;53.022;-1.178;2023-09-08T02:11:43;100886.67;;;17.52;87.17
57290;BME280;43523;53.022;-1.178;2023-09-08T02:12:46;100883.23;;;17.66;86.30
57290;BME280;43523;53.022;-1.178;2023-09-08T02:13:48;100881.48;;;17.71;85.34
57290;BME280;43523;53.022;-1.178;2023-09-08T02:14:51;100880.60;;;18.03;80.47
57290;BME280;43523;53.022;-1.178;2023-09-08T02:15:53;100878.30;;;18.09;80.47
57290;BME280;43523;53.022;-1.178;2023-09-08T02:16:56;100879.04;;;17.90;83.14
57290;BME280;43523;53.022;-1.178;2023-09-08T02:17:58;100878.82;;;17.99;82.35
57290;BME280;43523;53.022;-1.178;2023-09-08T02:19:01;100877.80;;;18.08;80.93
57290;BME280;43523;53.022;-1.178;2023-09-08T02:20:04;100880.10;;;17.83;80.66
57290;BME280;43523;53.022;-1.178;2023-09-08T02:21:07;100881.99;;;17.79;81.86
57290;BME280;43523;53.022;-1.178;2023-09-08T02:22:09;100881.74;;;18.17;79.74
57290;BME280;43523;53.022;-1.178;2023-09-08T02:23:11;100883.80;;;17.31;82.96
57290;BME280;43523;53.022;-1.178;2023-09-08T02:24:14;100885.27;;;17.47;84.48
57290;BME280;43523;53.022;-1.178;2023-09-08T02:25:16;100882.98;;;17.54;85.02
57290;BME280;43523;53.022;-1.178;2023-09-08T02:26:18;100882.17;;;17.19;86.41
57290;BME280;43523;53.022;-1.178;2023-09-08T02:27:21;100877.91;;;17.68;84.13
57290;BME280;43523;53.022;-1.178;2023-09-08T02:28:24;100875.44;;;18.01;79.84
57290;BME280;43523;53.022;-1.178;2023-09-08T02:29:27;100873.99;;;18.01;80.05
57290;BME280;43523;53.022;-1.178;2023-09-08T02:30:30;100872.13;;;18.26;79.24
57290;BME280;43523;53.022;-1.178;2023-09-08T02:31:33;100873.10;;;17.90;81.68
57290;BME280;43523;53.022;-1.178;2023-09-08T02:32:35;100871.41;;;17.99;80.27
57290;BME280;43523;53.022;-1.178;2023-09-08T02:33:37;100870.85;;;17.93;81.83
57290;BME280;43523;53.022;-1.178;2023-09-08T02:34:39;100868.47;;;17.98;80.30
57290;BME280;43523;53.022;-1.178;2023-09-08T02:35:43;100869.95;;;17.71;80.79
57290;BME280;43523;53.022;-1.178;2023-09-08T02:36:45;100867.35;;;17.84;80.21
57290;BME280;43523;53.022;-1.178;2023-09-08T02:37:47;100868.26;;;17.93;79.51
57290;BME280;43523;53.022;-1.178;2023-09-08T02:38:49;100867.92;;;17.99;79.66
57290;BME280;43523;53.022;-1.178;2023-09-08T02:39:51;100868.81;;;18.43;79.21
57290;BME280;43523;53.022;-1.178;2023-09-08T02:40:54;100869.67;;;17.95;79.75
57290;BME280;43523;53.022;-1.178;2023-09-08T02:41:56;100870.35;;;18.09;80.75
57290;BME280;43523;53.022;-1.178;2023-09-08T02:42:59;100872.35;;;17.74;82.27
57290;BME280;43523;53.022;-1.178;2023-09-08T02:44:02;100871.82;;;17.66;83.08
57290;BME280;43523;53.022;-1.178;2023-09-08T02:45:05;100872.80;;;17.78;82.12
57290;BME280;43523;53.022;-1.178;2023-09-08T02:46:08;100873.98;;;17.88;82.12
57290;BME280;43523;53.022;-1.178;2023-09-08T02:47:10;100872.19;;;17.98;81.51
57290;BME280;43523;53.022;-1.178;2023-09-08T02:48:13;100873.21;;;17.46;85.03
57290;BME280;43523;53.022;-1.178;2023-09-08T02:49:16;100869.75;;;17.65;84.87
57290;BME280;43523;53.022;-1.178;2023-09-08T02:50:18;100869.99;;;17.37;85.37
57290;BME280;43523;53.022;-1.178;2023-09-08T02:51:20;100870.50;;;18.09;81.40
57290;BME280;43523;53.022;-1.178;2023-09-08T02:52:28;100875.47;;;18.13;81.41
57290;BME280;43523;53.022;-1.178;2023-09-08T02:53:32;100878.28;;;18.08;80.12
57290;BME280;43523;53.022;-1.178;2023-09-08T02:54:34;100883.01;;;17.64;81.90
57290;BME280;43523;53.022;-1.178;2023-09-08T02:55:36;100887.14;;;17.21;84.53
57290;BME280;43523;53.022;-1.178;2023-09-08T02:56:39;100888.30;;;17.56;85.50
57290;BME280;43523;53.022;-1.178;2023-09-08T02:57:41;100889.47;;;17.06;88.39
57290;BME280;43523;53.022;-1.178;2023-09-08T02:58:44;100887.96;;;17.48;86.94
57290;BME280;43523;53.022;-1.178;2023-09-08T02:59:49;100885.89;;;17.59;83.54
57290;BME280;43523;53.022;-1.178;2023-09-08T03:00:51;100884.14;;;17.49;85.40
57290;BME280;43523;53.022;-1.178;2023-09-08T03:01:55;100882.45;;;17.65;84.07
57290;BME280;43523;53.022;-1.178;2023-09-08T03:02:58;100880.62;;;17.74;83.24
57290;BME280;43523;53.022;-1.178;2023-09-08T03:04:00;100883.14;;;17.76;84.83
57290;BME280;43523;53.022;-1.178;2023-09-08T03:05:03;100884.27;;;17.96;81.40
57290;BME280;43523;53.022;-1.178;2023-09-08T03:06:05;100886.91;;;17.98;81.59
57290;BME280;43523;53.022;-1.178;2023-09-08T03:07:07;100888.09;;;17.77;83.77
57290;BME280;43523;53.022;-1.178;2023-09-08T03:08:09;100891.87;;;17.73;84.46
57290;BME280;43523;53.022;-1.178;2023-09-08T03:09:11;100890.76;;;17.93;82.87
57290;BME280;43523;53.022;-1.178;2023-09-08T03:10:14;100891.06;;;17.81;80.49
57290;BME280;43523;53.022;-1.178;2023-09-08T03:11:17;100890.09;;;18.34;79.44
57290;BME280;43523;53.022;-1.178;2023-09-08T03:12:19;100892.44;;;17.97;82.16
57290;BME280;43523;53.022;-1.178;2023-09-08T03:13:22;100892.24;;;17.91;82.84
57290;BME280;43523;53.022;-1.178;2023-09-08T03:14:26;100889.20;;;18.15;78.83
57290;BME280;43523;53.022;-1.178;2023-09-08T03:15:28;100887.78;;;18.11;79.72
57290;BME280;43523;53.022;-1.178;2023-09-08T03:16:30;100886.36;;;18.07;80.63
57290;BME280;43523;53.022;-1.178;2023-09-08T03:17:33;100892.76;;;17.18;84.58
57290;BME280;43523;53.022;-1.178;2023-09-08T03:18:36;100885.20;;;17.86;82.40
57290;BME280;43523;53.022;-1.178;2023-09-08T03:19:39;100883.45;;;17.87;80.18
57290;BME280;43523;53.022;-1.178;2023-09-08T03:20:41;100881.86;;;17.96;79.90
57290;BME280;43523;53.022;-1.178;2023-09-08T03:21:43;100882.14;;;17.85;81.19
57290;BME280;43523;53.022;-1.178;2023-09-08T03:22:46;100878.61;;;17.67;81.57
57290;BME280;43523;53.022;-1.178;2023-09-08T03:23:48;100878.89;;;17.72;81.85
57290;BME280;43523;53.022;-1.178;2023-09-08T03:24:51;100883.87;;;17.60;83.84
57290;BME280;43523;53.022;-1.178;2023-09-08T03:25:53;100880.26;;;17.83;79.00
57290;BME280;43523;53.022;-1.178;2023-09-08T03:26:55;100878.29;;;18.01;80.37
57290;BME280;43523;53.022;-1.178;2023-09-08T03:27:58;100878.18;;;17.69;81.66
57290;BME280;43523;53.022;-1.178;2023-09-08T03:29:01;100879.39;;;18.01;79.57
57290;BME280;43523;53.022;-1.178;2023-09-08T03:30:04;100878.49;;;17.73;80.76
57290;BME280;43523;53.022;-1.178;2023-09-08T03:31:07;100877.51;;;17.78;78.75
57290;BME280;43523;53.022;-1.178;2023-09-08T03:32:09;100879.42;;;17.73;79.42
57290;BME280;43523;53.022;-1.178;2023-09-08T03:33:12;100878.46;;;17.72;80.26
57290;BME280;43523;53.022;-1.178;2023-09-08T03:34:14;100877.25;;;17.74;80.89
57290;BME280;43523;53.022;-1.178;2023-09-08T03:35:17;100876.81;;;17.78;80.66
57290;BME280;43523;53.022;-1.178;2023-09-08T03:36:19;100878.26;;;17.59;81.77
57290;BME280;43523;53.022;-1.178;2023-09-08T03:37:21;100874.07;;;17.65;81.77
57290;BME280;43523;53.022;-1.178;2023-09-08T03:38:24;100877.61;;;17.29;84.52
57290;BME280;43523;53.022;-1.178;2023-09-08T03:39:26;100876.67;;;17.43;81.74
57290;BME280;43523;53.022;-1.178;2023-09-08T03:40:29;100874.02;;;16.58;86.19
57290;BME280;43523;53.022;-1.178;2023-09-08T03:41:32;100875.42;;;17.38;84.66
57290;BME280;43523;53.022;-1.178;2023-09-08T03:42:34;100876.00;;;17.04;84.77
57290;BME280;43523;53.022;-1.178;2023-09-08T03:43:37;100873.11;;;17.52;83.73
57290;BME280;43523;53.022;-1.178;2023-09-08T03:44:38;100871.21;;;18.01;82.00
57290;BME280;43523;53.022;-1.178;2023-09-08T03:45:41;100873.47;;;17.70;79.45
57290;BME280;43523;53.022;-1.178;2023-09-08T03:46:43;100873.97;;;17.95;80.52
57290;BME280;43523;53.022;-1.178;2023-09-08T03:47:46;100873.84;;;18.05;77.23
57290;BME280;43523;53.022;-1.178;2023-09-08T03:48:48;100875.76;;;18.02;77.32
57290;BME280;43523;53.022;-1.178;2023-09-08T03:49:50;100874.56;;;17.98;77.06
57290;BME280;43523;53.022;-1.178;2023-09-08T03:50:53;100876.41;;;17.90;76.94
57290;BME280;43523;53.022;-1.178;2023-09-08T03:51:55;100875.62;;;17.80;76.06
57290;BME280;43523;53.022;-1.178;2023-09-08T03:52:58;100879.71;;;17.63;76.97
57290;BME280;43523;53.022;-1.178;2023-09-08T03:54:00;100885.49;;;17.43;77.63
57290;BME280;43523;53.022;-1.178;2023-09-08T03:55:02;100884.89;;;17.33;81.59
57290;BME280;43523;53.022;-1.178;2023-09-08T03:56:05;100883.85;;;17.33;82.15
57290;BME280;43523;53.022;-1.178;2023-09-08T03:57:07;100882.87;;;17.40;81.70
57290;BME280;43523;53.022;-1.178;2023-09-08T03:58:10;100880.50;;;17.89;82.69
57290;BME280;43523;53.022;-1.178;2023-09-08T03:59:13;100875.13;;;17.57;82.28
57290;BME280;43523;53.022;-1.178;2023-09-08T04:00:15;100873.79;;;17.69;80.51
57290;BME280;43523;53.022;-1.178;2023-09-08T04:01:18;100873.15;;;17.88;80.17
57290;BME280;43523;53.022;-1.178;2023-09-08T04:02:20;100872.35;;;17.70;78.55
57290;BME280;43523;53.022;-1.178;2023-09-08T04:03:22;100870.68;;;17.66;78.29
57290;BME280;43523;53.022;-1.178;2023-09-08T04:04:25;100870.63;;;17.55;80.94
57290;BME280;43523;53.022;-1.178;2023-09-08T04:05:28;100869.55;;;18.06;81.11
57290;BME280;43523;53.022;-1.178;2023-09-08T04:06:30;100867.10;;;17.96;80.09
57290;BME280;43523;53.022;-1.178;2023-09-08T04:07:33;100864.57;;;17.78;79.50
57290;BME280;43523;53.022;-1.178;2023-09-08T04:08:35;100863.50;;;17.85;77.10
57290;BME280;43523;53.022;-1.178;2023-09-08T04:09:37;100863.07;;;17.80;78.28
57290;BME280;43523;53.022;-1.178;2023-09-08T04:10:39;100862.25;;;17.85;78.13
57290;BME280;43523;53.022;-1.178;2023-09-08T04:11:42;100862.05;;;17.67;79.57
57290;BME280;43523;53.022;-1.178;2023-09-08T04:12:44;100863.45;;;17.39;79.97
57290;BME280;43523;53.022;-1.178;2023-09-08T04:13:47;100864.52;;;17.22;80.70
57290;BME280;43523;53.022;-1.178;2023-09-08T04:14:49;100863.90;;;17.63;79.97
57290;BME280;43523;53.022;-1.178;2023-09-08T04:15:51;100861.99;;;17.86;77.38
57290;BME280;43523;53.022;-1.178;2023-09-08T04:16:53;100861.12;;;17.90;76.88
57290;BME280;43523;53.022;-1.178;2023-09-08T04:17:56;100861.01;;;17.91;75.93
57290;BME280;43523;53.022;-1.178;2023-09-08T04:18:58;100862.67;;;17.63;75.03
57290;BME280;43523;53.022;-1.178;2023-09-08T04:20:00;100863.28;;;18.04;75.94
57290;BME280;43523;53.022;-1.178;2023-09-08T04:21:02;100862.02;;;17.78;75.17
57290;BME280;43523;53.022;-1.178;2023-09-08T04:22:04;100863.55;;;17.73;75.66
57290;BME280;43523;53.022;-1.178;2023-09-08T04:23:07;100863.00;;;17.70;73.92
57290;BME280;43523;53.022;-1.178;2023-09-08T04:24:10;100867.19;;;17.50;77.48
57290;BME280;43523;53.022;-1.178;2023-09-08T04:25:12;100869.54;;;17.39;79.12
57290;BME280;43523;53.022;-1.178;2023-09-08T04:26:15;100864.70;;;17.59;76.65
57290;BME280;43523;53.022;-1.178;2023-09-08T04:27:17;100864.63;;;17.60;73.48
57290;BME280;43523;53.022;-1.178;2023-09-08T04:28:20;100867.36;;;17.51;73.90
57290;BME280;43523;53.022;-1.178;2023-09-08T04:29:22;100870.47;;;17.90;73.43
57290;BME280;43523;53.022;-1.178;2023-09-08T04:30:26;100874.06;;;17.52;76.34
57290;BME280;43523;53.022;-1.178;2023-09-08T04:31:28;100878.88;;;17.73;73.08
57290;BME280;43523;53.022;-1.178;2023-09-08T04:32:30;100881.56;;;17.61;74.00
57290;BME280;43523;53.022;-1.178;2023-09-08T04:33:33;100881.69;;;17.49;76.17
57290;BME280;43523;53.022;-1.178;2023-09-08T04:34:37;100883.22;;;17.02;73.82
57290;BME280;43523;53.022;-1.178;2023-09-08T04:35:39;100885.67;;;17.10;76.19
57290;BME280;43523;53.022;-1.178;2023-09-08T04:36:42;100885.72;;;17.27;76.86
57290;BME280;43523;53.022;-1.178;2023-09-08T04:37:43;100884.27;;;17.01;76.44
57290;BME280;43523;53.022;-1.178;2023-09-08T04:38:45;100883.83;;;17.23;78.12
57290;BME280;43523;53.022;-1.178;2023-09-08T04:39:48;100881.24;;;17.04;78.21
57290;BME280;43523;53.022;-1.178;2023-09-08T04:40:50;100878.96;;;17.21;77.94
57290;BME280;43523;53.022;-1.178;2023-09-08T04:41:53;100878.02;;;17.11;79.33
57290;BME280;43523;53.022;-1.178;2023-09-08T04:42:56;100877.60;;;17.07;79.44
57290;BME280;43523;53.022;-1.178;2023-09-08T04:43:58;100876.71;;;17.07;76.63
57290;BME280;43523;53.022;-1.178;2023-09-08T04:45:00;100877.34;;;17.07;80.68
57290;BME280;43523;53.022;-1.178;2023-09-08T04:46:02;100880.89;;;16.73;82.16
57290;BME280;43523;53.022;-1.178;2023-09-08T04:47:05;100879.36;;;17.19;77.15
57290;BME280;43523;53.022;-1.178;2023-09-08T04:48:07;100882.89;;;16.80;78.02
57290;BME280;43523;53.022;-1.178;2023-09-08T04:49:09;100882.20;;;17.28;78.44
57290;BME280;43523;53.022;-1.178;2023-09-08T04:50:11;100885.41;;;17.28;79.38
57290;BME280;43523;53.022;-1.178;2023-09-08T04:51:13;100888.65;;;17.07;80.11
57290;BME280;43523;53.022;-1.178;2023-09-08T04:52:16;100891.48;;;17.45;76.64
57290;BME280;43523;53.022;-1.178;2023-09-08T04:53:18;100893.03;;;17.21;78.66
57290;BME280;43523;53.022;-1.178;2023-09-08T04:54:20;100893.66;;;17.40;74.87
57290;BME280;43523;53.022;-1.178;2023-09-08T04:55:24;100892.92;;;17.20;75.70
57290;BME280;43523;53.022;-1.178;2023-09-08T04:56:26;100895.42;;;17.12;77.34
57290;BME280;43523;53.022;-1.178;2023-09-08T04:57:28;100898.95;;;17.11;78.49
57290;BME280;43523;53.022;-1.178;2023-09-08T04:58:31;100903.53;;;17.34;81.70
57290;BME280;43523;53.022;-1.178;2023-09-08T04:59:33;100905.56;;;17.19;78.65
57290;BME280;43523;53.022;-1.178;2023-09-08T05:00:38;100908.11;;;16.92;77.87
57290;BME280;43523;53.022;-1.178;2023-09-08T05:01:41;100913.84;;;16.89;82.27
57290;BME280;43523;53.022;-1.178;2023-09-08T05:02:43;100914.70;;;16.31;81.27
57290;BME280;43523;53.022;-1.178;2023-09-08T05:03:46;100911.19;;;15.79;83.84
57290;BME280;43523;53.022;-1.178;2023-09-08T05:04:49;100907.36;;;16.60;84.06
57290;BME280;43523;53.022;-1.178;2023-09-08T05:05:51;100903.40;;;16.76;82.43
57290;BME280;43523;53.022;-1.178;2023-09-08T05:06:53;100900.08;;;16.90;79.57
57290;BME280;43523;53.022;-1.178;2023-09-08T05:07:55;100898.01;;;16.76;77.36
57290;BME280;43523;53.022;-1.178;2023-09-08T05:08:58;100900.87;;;16.94;76.88
57290;BME280;43523;53.022;-1.178;2023-09-08T05:10:00;100902.11;;;16.90;78.45
57290;BME280;43523;53.022;-1.178;2023-09-08T05:11:02;100901.73;;;16.83;78.71
57290;BME280;43523;53.022;-1.178;2023-09-08T05:12:05;100902.93;;;16.62;80.53
57290;BME280;43523;53.022;-1.178;2023-09-08T05:13:07;100906.18;;;16.84;79.22
57290;BME280;43523;53.022;-1.178;2023-09-08T05:14:10;100904.04;;;16.90;80.98
57290;BME280;43523;53.022;-1.178;2023-09-08T05:15:12;100900.72;;;16.96;79.05
57290;BME280;43523;53.022;-1.178;2023-09-08T05:16:15;100900.57;;;16.94;77.20
57290;BME280;43523;53.022;-1.178;2023-09-08T05:17:17;100898.27;;;16.93;78.03
57290;BME280;43523;53.022;-1.178;2023-09-08T05:18:19;100900.28;;;16.91;79.87
57290;BME280;43523;53.022;-1.178;2023-09-08T05:19:21;100901.58;;;17.22;80.71
57290;BME280;43523;53.022;-1.178;2023-09-08T05:20:25;100903.17;;;17.28;81.14
57290;BME280;43523;53.022;-1.178;2023-09-08T05:21:27;100906.78;;;17.04;81.06
57290;BME280;43523;53.022;-1.178;2023-09-08T05:22:30;100908.65;;;17.20;79.24
57290;BME280;43523;53.022;-1.178;2023-09-08T05:23:33;100908.44;;;17.24;77.76
57290;BME280;43523;53.022;-1.178;2023-09-08T05:24:36;100909.21;;;17.24;77.06